sensor_id;sensor_type;location;lat;lon;timestamp;temperature;humidity
11846;DHT22;5982;37.494;-8.758;2022-11-11T00:00:01;16.00;99.90
11846;DHT22;5982;37.494;-8.758;2022-11-11T00:02:29;16.00;99.90
11846;DHT22;5982;37.494;-8.758;2022-11-11T00:04:57;16.00;99.90
11846;DHT22;5982;37.494;-8.758;2022-11-11T00:07:26;16.00;99.90
11846;DHT22;5982;37.494;-8.758;2022-11-11T00:09:54;16.00;99.90
11846;DHT22;5982;37.494;-8.758;2022-11-11T00:12:22;16.10;99.90
11846;DHT22;5982;37.494;-8.758;2022-11-11T00:14:50;16.20;99.90
11846;DHT22;5982;37.494;-8.758;2022-11-11T00:17:17;16.20;99.90
11846;DHT22;5982;37.494;-8.758;2022-11-11T00:20:02;16.20;99.90
11846;DHT22;5982;37.494;-8.758;2022-11-11T00:22:49;16.30;99.90
11846;DHT22;5982;37.494;-8.758;2022-11-11T00:51:16;16.30;99.90
11846;DHT22;5982;37.494;-8.758;2022-11-11T00:53:44;16.30;99.90
11846;DHT22;5982;37.494;-8.758;2022-11-11T00:56:11;16.20;99.90
11846;DHT22;5982;37.494;-8.758;2022-11-11T00:58:39;16.20;99.90
11846;DHT22;5982;37.494;-8.758;2022-11-11T01:01:07;16.10;99.90
11846;DHT22;5982;37.494;-8.758;2022-11-11T01:03:35;16.10;99.90
11846;DHT22;5982;37.494;-8.758;2022-11-11T01:06:03;16.20;99.90
11846;DHT22;5982;37.494;-8.758;2022-11-11T01:08:32;16.10;99.90
11846;DHT22;5982;37.494;-8.758;2022-11-11T01:11:00;16.00;99.90
11846;DHT22;5982;37.494;-8.758;2022-11-11T01:13:28;15.90;99.90
11846;DHT22;5982;37.494;-8.758;2022-11-11T01:15:57;15.90;99.90
11846;DHT22;5982;37.494;-8.758;2022-11-11T01:18:26;15.80;99.90
11846;DHT22;5982;37.494;-8.758;2022-11-11T01:20:58;15.80;99.90
11846;DHT22;5982;37.494;-8.758;2022-11-11T01:23:26;15.70;99.90
11846;DHT22;5982;37.494;-8.758;2022-11-11T01:25:59;15.60;99.90
11846;DHT22;5982;37.494;-8.758;2022-11-11T01:28:28;15.50;99.90
11846;DHT22;5982;37.494;-8.758;2022-11-11T01:30:59;15.40;99.90
11846;DHT22;5982;37.494;-8.758;2022-11-11T01:33:27;15.40;99.90
11846;DHT22;5982;37.494;-8.758;2022-11-11T01:35:55;15.40;99.90
11846;DHT22;5982;37.494;-8.758;2022-11-11T01:38:28;15.40;99.90
11846;DHT22;5982;37.494;-8.758;2022-11-11T01:40:57;15.30;99.90
11846;DHT22;5982;37.494;-8.758;2022-11-11T01:43:25;15.30;99.90
11846;DHT22;5982;37.494;-8.758;2022-11-11T01:45:54;15.30;99.90
11846;DHT22;5982;37.494;-8.758;2022-11-11T01:48:32;15.30;99.90
11846;DHT22;5982;37.494;-8.758;2022-11-11T01:51:23;15.20;99.90
11846;DHT22;5982;37.494;-8.758;2022-11-11T01:53:55;15.10;99.90
11846;DHT22;5982;37.494;-8.758;2022-11-11T01:56:28;15.10;99.90
11846;DHT22;5982;37.494;-8.758;2022-11-11T01:58:56;15.10;99.90
11846;DHT22;5982;37.494;-8.758;2022-11-11T02:01:26;15.00;99.90
11846;DHT22;5982;37.494;-8.758;2022-11-11T02:03:54;15.00;99.90
11846;DHT22;5982;37.494;-8.758;2022-11-11T02:06:39;15.00;99.90
11846;DHT22;5982;37.494;-8.758;2022-11-11T02:09:07;15.10;99.90
11846;DHT22;5982;37.494;-8.758;2022-11-11T02:11:37;15.10;99.90
11846;DHT22;5982;37.494;-8.758;2022-11-11T02:14:24;15.10;99.90
11846;DHT22;5982;37.494;-8.758;2022-11-11T02:17:04;15.10;99.90
11846;DHT22;5982;37.494;-8.758;2022-11-11T02:19:36;15.10;99.90
11846;DHT22;5982;37.494;-8.758;2022-11-11T02:22:09;15.10;99.90
11846;DHT22;5982;37.494;-8.758;2022-11-11T02:24:42;15.10;99.90
11846;DHT22;5982;37.494;-8.758;2022-11-11T02:27:13;15.10;99.90
11846;DHT22;5982;37.494;-8.758;2022-11-11T02:29:45;15.10;99.90
11846;DHT22;5982;37.494;-8.758;2022-11-11T02:32:15;15.10;99.90
11846;DHT22;5982;37.494;-8.758;2022-11-11T02:34:43;15.10;99.90
11846;DHT22;5982;37.494;-8.758;2022-11-11T02:37:11;15.10;99.90
11846;DHT22;5982;37.494;-8.758;2022-11-11T02:39:44;15.10;99.90
11846;DHT22;5982;37.494;-8.758;2022-11-11T02:42:14;15.20;99.90
11846;DHT22;5982;37.494;-8.758;2022-11-11T02:44:43;15.10;99.90
11846;DHT22;5982;37.494;-8.758;2022-11-11T02:47:11;15.10;99.90
11846;DHT22;5982;37.494;-8.758;2022-11-11T02:49:39;15.10;99.90
11846;DHT22;5982;37.494;-8.758;2022-11-11T02:52:08;15.10;99.90
11846;DHT22;5982;37.494;-8.758;2022-11-11T02:54:36;15.10;99.90
11846;DHT22;5982;37.494;-8.758;2022-11-11T02:57:06;15.10;99.90
11846;DHT22;5982;37.494;-8.758;2022-11-11T02:59:35;15.10;99.90
11846;DHT22;5982;37.494;-8.758;2022-11-11T03:02:04;15.10;99.90
11846;DHT22;5982;37.494;-8.758;2022-11-11T03:04:33;15.00;99.90
11846;DHT22;5982;37.494;-8.758;2022-11-11T03:07:02;15.00;99.90
11846;DHT22;5982;37.494;-8.758;2022-11-11T03:09:31;14.90;99.90
11846;DHT22;5982;37.494;-8.758;2022-11-11T03:11:59;14.90;99.90
11846;DHT22;5982;37.494;-8.758;2022-11-11T03:14:29;14.80;99.90
11846;DHT22;5982;37.494;-8.758;2022-11-11T03:16:57;14.70;99.90
11846;DHT22;5982;37.494;-8.758;2022-11-11T03:19:43;14.70;99.90
11846;DHT22;5982;37.494;-8.758;2022-11-11T03:22:11;14.70;99.90
11846;DHT22;5982;37.494;-8.758;2022-11-11T03:24:38;14.70;99.90
11846;DHT22;5982;37.494;-8.758;2022-11-11T03:27:25;14.70;99.90
11846;DHT22;5982;37.494;-8.758;2022-11-11T03:29:55;14.70;99.90
11846;DHT22;5982;37.494;-8.758;2022-11-11T03:32:23;14.70;99.90
11846;DHT22;5982;37.494;-8.758;2022-11-11T03:34:51;14.70;99.90
11846;DHT22;5982;37.494;-8.758;2022-11-11T03:37:20;14.70;99.90
11846;DHT22;5982;37.494;-8.758;2022-11-11T03:40:08;14.70;99.90
11846;DHT22;5982;37.494;-8.758;2022-11-11T03:42:37;14.70;99.90
11846;DHT22;5982;37.494;-8.758;2022-11-11T03:45:09;14.60;99.90
11846;DHT22;5982;37.494;-8.758;2022-11-11T03:47:37;14.70;99.90
11846;DHT22;5982;37.494;-8.758;2022-11-11T03:50:06;14.70;99.90
11846;DHT22;5982;37.494;-8.758;2022-11-11T03:52:38;14.70;99.90
11846;DHT22;5982;37.494;-8.758;2022-11-11T03:55:08;14.70;99.90
11846;DHT22;5982;37.494;-8.758;2022-11-11T03:57:40;14.70;99.90
11846;DHT22;5982;37.494;-8.758;2022-11-11T04:00:13;14.70;99.90
11846;DHT22;5982;37.494;-8.758;2022-11-11T04:02:42;14.70;99.90
11846;DHT22;5982;37.494;-8.758;2022-11-11T04:05:27;14.70;99.90
11846;DHT22;5982;37.494;-8.758;2022-11-11T04:08:14;14.70;99.90
11846;DHT22;5982;37.494;-8.758;2022-11-11T04:11:05;14.70;99.90
11846;DHT22;5982;37.494;-8.758;2022-11-11T04:13:35;14.80;99.90
11846;DHT22;5982;37.494;-8.758;2022-11-11T04:16:22;14.80;99.90
11846;DHT22;5982;37.494;-8.758;2022-11-11T04:18:51;14.70;99.90
11846;DHT22;5982;37.494;-8.758;2022-11-11T04:21:37;14.80;99.90
11846;DHT22;5982;37.494;-8.758;2022-11-11T04:24:12;14.80;99.90
11846;DHT22;5982;37.494;-8.758;2022-11-11T04:26:59;14.70;99.90
11846;DHT22;5982;37.494;-8.758;2022-11-11T04:29:29;14.70;99.90
11846;DHT22;5982;37.494;-8.758;2022-11-11T04:32:00;14.60;99.90
11846;DHT22;5982;37.494;-8.758;2022-11-11T04:34:47;14.60;99.90
11846;DHT22;5982;37.494;-8.758;2022-11-11T04:37:17;14.50;99.90
11846;DHT22;5982;37.494;-8.758;2022-11-11T04:39:46;14.50;99.90
11846;DHT22;5982;37.494;-8.758;2022-11-11T04:42:32;14.50;99.90
11846;DHT22;5982;37.494;-8.758;2022-11-11T04:45:01;14.50;99.90
11846;DHT22;5982;37.494;-8.758;2022-11-11T04:47:56;14.40;99.90
11846;DHT22;5982;37.494;-8.758;2022-11-11T04:50:26;14.40;99.90
11846;DHT22;5982;37.494;-8.758;2022-11-11T04:52:56;14.50;99.90
11846;DHT22;5982;37.494;-8.758;2022-11-11T04:55:24;14.50;99.90
11846;DHT22;5982;37.494;-8.758;2022-11-11T04:58:10;14.50;99.90
11846;DHT22;5982;37.494;-8.758;2022-11-11T05:00:39;14.50;99.90
11846;DHT22;5982;37.494;-8.758;2022-11-11T05:03:11;14.60;99.90
11846;DHT22;5982;37.494;-8.758;2022-11-11T05:05:43;14.60;99.90
11846;DHT22;5982;37.494;-8.758;2022-11-11T05:08:28;14.60;99.90
11846;DHT22;5982;37.494;-8.758;2022-11-11T05:11:15;14.50;99.90
11846;DHT22;5982;37.494;-8.758;2022-11-11T05:13:44;14.50;99.90
11846;DHT22;5982;37.494;-8.758;2022-11-11T05:16:31;14.50;99.90
11846;DHT22;5982;37.494;-8.758;2022-11-11T05:19:19;14.40;99.90
11846;DHT22;5982;37.494;-8.758;2022-11-11T05:22:09;14.40;99.90
11846;DHT22;5982;37.494;-8.758;2022-11-11T05:24:39;14.30;99.90
11846;DHT22;5982;37.494;-8.758;2022-11-11T05:27:24;14.30;99.90
11846;DHT22;5982;37.494;-8.758;2022-11-11T05:29:53;14.20;99.90
11846;DHT22;5982;37.494;-8.758;2022-11-11T05:32:22;14.20;99.90
11846;DHT22;5982;37.494;-8.758;2022-11-11T05:34:52;14.10;99.90
11846;DHT22;5982;37.494;-8.758;2022-11-11T05:37:20;14.10;99.90
11846;DHT22;5982;37.494;-8.758;2022-11-11T05:39:49;14.10;99.90
11846;DHT22;5982;37.494;-8.758;2022-11-11T05:42:17;14.10;99.90
11846;DHT22;5982;37.494;-8.758;2022-11-11T05:44:46;14.00;99.90
11846;DHT22;5982;37.494;-8.758;2022-11-11T05:47:14;14.00;99.90
11846;DHT22;5982;37.494;-8.758;2022-11-11T05:49:42;13.90;99.90
11846;DHT22;5982;37.494;-8.758;2022-11-11T05:52:14;13.80;99.90
11846;DHT22;5982;37.494;-8.758;2022-11-11T05:54:43;13.80;99.90
11846;DHT22;5982;37.494;-8.758;2022-11-11T05:57:13;13.70;99.90
11846;DHT22;5982;37.494;-8.758;2022-11-11T05:59:41;13.70;99.90
11846;DHT22;5982;37.494;-8.758;2022-11-11T06:02:10;13.70;99.90
11846;DHT22;5982;37.494;-8.758;2022-11-11T06:04:39;13.60;99.90
11846;DHT22;5982;37.494;-8.758;2022-11-11T06:07:07;13.60;99.90
11846;DHT22;5982;37.494;-8.758;2022-11-11T06:09:36;13.50;99.90
11846;DHT22;5982;37.494;-8.758;2022-11-11T06:12:05;13.60;99.90
11846;DHT22;5982;37.494;-8.758;2022-11-11T06:14:33;13.50;99.90
11846;DHT22;5982;37.494;-8.758;2022-11-11T06:17:01;13.50;99.90
11846;DHT22;5982;37.494;-8.758;2022-11-11T06:19:29;13.40;99.90
11846;DHT22;5982;37.494;-8.758;2022-11-11T06:21:58;13.50;99.90
11846;DHT22;5982;37.494;-8.758;2022-11-11T06:24:28;13.50;99.90
11846;DHT22;5982;37.494;-8.758;2022-11-11T06:26:58;13.60;99.90
11846;DHT22;5982;37.494;-8.758;2022-11-11T06:29:25;13.60;99.90
11846;DHT22;5982;37.494;-8.758;2022-11-11T06:31:53;13.60;99.90
11846;DHT22;5982;37.494;-8.758;2022-11-11T06:34:22;13.60;99.90
11846;DHT22;5982;37.494;-8.758;2022-11-11T06:36:50;13.70;99.90
11846;DHT22;5982;37.494;-8.758;2022-11-11T06:39:18;13.70;99.90
11846;DHT22;5982;37.494;-8.758;2022-11-11T06:41:46;13.70;99.90
11846;DHT22;5982;37.494;-8.758;2022-11-11T06:44:16;13.60;99.90
11846;DHT22;5982;37.494;-8.758;2022-11-11T06:46:44;13.60;99.90
11846;DHT22;5982;37.494;-8.758;2022-11-11T06:49:12;13.60;99.90
11846;DHT22;5982;37.494;-8.758;2022-11-11T06:51:40;13.70;99.90
11846;DHT22;5982;37.494;-8.758;2022-11-11T06:54:09;13.70;99.90
11846;DHT22;5982;37.494;-8.758;2022-11-11T06:56:37;13.70;99.90
11846;DHT22;5982;37.494;-8.758;2022-11-11T06:59:05;13.70;99.90
11846;DHT22;5982;37.494;-8.758;2022-11-11T07:01:35;13.70;99.90
11846;DHT22;5982;37.494;-8.758;2022-11-11T07:04:03;13.70;99.90
11846;DHT22;5982;37.494;-8.758;2022-11-11T07:06:32;13.70;99.90
11846;DHT22;5982;37.494;-8.758;2022-11-11T07:09:00;13.70;99.90
11846;DHT22;5982;37.494;-8.758;2022-11-11T07:11:28;13.70;99.90
11846;DHT22;5982;37.494;-8.758;2022-11-11T07:13:56;13.70;99.90
11846;DHT22;5982;37.494;-8.758;2022-11-11T07:16:24;13.70;99.90
11846;DHT22;5982;37.494;-8.758;2022-11-11T07:18:54;13.70;99.90
11846;DHT22;5982;37.494;-8.758;2022-11-11T07:21:22;13.70;99.90
11846;DHT22;5982;37.494;-8.758;2022-11-11T07:23:50;13.80;99.90
11846;DHT22;5982;37.494;-8.758;2022-11-11T07:26:19;13.80;99.90
11846;DHT22;5982;37.494;-8.758;2022-11-11T07:28:47;13.90;99.90
11846;DHT22;5982;37.494;-8.758;2022-11-11T07:31:16;14.30;99.90
11846;DHT22;5982;37.494;-8.758;2022-11-11T07:33:45;14.90;99.90
11846;DHT22;5982;37.494;-8.758;2022-11-11T07:36:15;15.40;99.90
11846;DHT22;5982;37.494;-8.758;2022-11-11T07:38:43;15.80;99.90
11846;DHT22;5982;37.494;-8.758;2022-11-11T07:41:11;16.20;99.90
11846;DHT22;5982;37.494;-8.758;2022-11-11T07:43:39;16.40;99.90
11846;DHT22;5982;37.494;-8.758;2022-11-11T07:46:07;16.60;99.90
11846;DHT22;5982;37.494;-8.758;2022-11-11T07:48:36;16.80;99.90
11846;DHT22;5982;37.494;-8.758;2022-11-11T07:51:04;16.90;99.90
11846;DHT22;5982;37.494;-8.758;2022-11-11T07:53:34;17.10;99.90
11846;DHT22;5982;37.494;-8.758;2022-11-11T07:56:02;17.20;99.90
11846;DHT22;5982;37.494;-8.758;2022-11-11T07:58:31;17.40;99.90
11846;DHT22;5982;37.494;-8.758;2022-11-11T08:00:59;17.50;99.90
11846;DHT22;5982;37.494;-8.758;2022-11-11T08:03:28;17.50;99.90
11846;DHT22;5982;37.494;-8.758;2022-11-11T08:05:56;17.20;99.90
11846;DHT22;5982;37.494;-8.758;2022-11-11T08:08:24;16.60;99.90
11846;DHT22;5982;37.494;-8.758;2022-11-11T08:10:55;16.20;99.90
11846;DHT22;5982;37.494;-8.758;2022-11-11T08:13:23;16.00;99.90
11846;DHT22;5982;37.494;-8.758;2022-11-11T08:16:10;16.00;99.90
11846;DHT22;5982;37.494;-8.758;2022-11-11T08:18:40;16.00;99.90
11846;DHT22;5982;37.494;-8.758;2022-11-11T08:21:08;16.10;99.90
11846;DHT22;5982;37.494;-8.758;2022-11-11T08:23:37;16.20;99.90
11846;DHT22;5982;37.494;-8.758;2022-11-11T08:26:06;16.40;99.90
11846;DHT22;5982;37.494;-8.758;2022-11-11T08:28:35;16.50;99.90
11846;DHT22;5982;37.494;-8.758;2022-11-11T08:31:03;16.70;99.90
11846;DHT22;5982;37.494;-8.758;2022-11-11T08:33:31;16.80;99.90
11846;DHT22;5982;37.494;-8.758;2022-11-11T08:36:00;17.00;99.90
11846;DHT22;5982;37.494;-8.758;2022-11-11T08:38:28;17.10;99.90
11846;DHT22;5982;37.494;-8.758;2022-11-11T08:40:59;17.30;99.90
11846;DHT22;5982;37.494;-8.758;2022-11-11T08:43:29;17.40;99.90
11846;DHT22;5982;37.494;-8.758;2022-11-11T08:45:57;17.50;99.90
11846;DHT22;5982;37.494;-8.758;2022-11-11T08:48:26;17.60;99.90
11846;DHT22;5982;37.494;-8.758;2022-11-11T08:50:55;17.70;99.90
11846;DHT22;5982;37.494;-8.758;2022-11-11T08:53:24;17.70;99.90
11846;DHT22;5982;37.494;-8.758;2022-11-11T08:55:53;17.70;99.90
11846;DHT22;5982;37.494;-8.758;2022-11-11T08:58:21;17.70;99.90
11846;DHT22;5982;37.494;-8.758;2022-11-11T09:00:51;17.70;99.90
11846;DHT22;5982;37.494;-8.758;2022-11-11T09:03:19;17.70;99.90
11846;DHT22;5982;37.494;-8.758;2022-11-11T09:05:47;17.70;99.90
11846;DHT22;5982;37.494;-8.758;2022-11-11T09:08:16;17.60;99.90
11846;DHT22;5982;37.494;-8.758;2022-11-11T09:10:44;17.70;99.90
11846;DHT22;5982;37.494;-8.758;2022-11-11T09:13:12;17.80;99.90
11846;DHT22;5982;37.494;-8.758;2022-11-11T09:15:41;17.70;99.90
11846;DHT22;5982;37.494;-8.758;2022-11-11T09:18:10;17.70;99.90
11846;DHT22;5982;37.494;-8.758;2022-11-11T09:20:38;17.60;99.90
11846;DHT22;5982;37.494;-8.758;2022-11-11T09:23:07;17.70;99.90
11846;DHT22;5982;37.494;-8.758;2022-11-11T09:25:35;17.70;99.90
11846;DHT22;5982;37.494;-8.758;2022-11-11T09:28:04;17.60;99.90
11846;DHT22;5982;37.494;-8.758;2022-11-11T09:30:32;17.80;99.90
11846;DHT22;5982;37.494;-8.758;2022-11-11T09:33:01;17.70;99.90
11846;DHT22;5982;37.494;-8.758;2022-11-11T09:35:31;17.80;99.90
11846;DHT22;5982;37.494;-8.758;2022-11-11T09:38:00;17.80;99.90
11846;DHT22;5982;37.494;-8.758;2022-11-11T09:40:38;17.80;99.90
11846;DHT22;5982;37.494;-8.758;2022-11-11T09:43:25;17.90;99.90
11846;DHT22;5982;37.494;-8.758;2022-11-11T09:46:10;18.00;99.90
11846;DHT22;5982;37.494;-8.758;2022-11-11T09:48:58;18.10;99.90
11846;DHT22;5982;37.494;-8.758;2022-11-11T09:51:57;18.20;99.90
11846;DHT22;5982;37.494;-8.758;2022-11-11T09:54:33;18.40;99.90
11846;DHT22;5982;37.494;-8.758;2022-11-11T09:57:11;18.60;99.90
11846;DHT22;5982;37.494;-8.758;2022-11-11T09:59:46;18.80;99.90
11846;DHT22;5982;37.494;-8.758;2022-11-11T10:02:25;19.00;99.90
11846;DHT22;5982;37.494;-8.758;2022-11-11T10:05:02;19.00;99.90
11846;DHT22;5982;37.494;-8.758;2022-11-11T10:07:40;19.00;99.90
11846;DHT22;5982;37.494;-8.758;2022-11-11T10:10:19;19.20;99.90
11846;DHT22;5982;37.494;-8.758;2022-11-11T10:12:53;19.20;99.90
11846;DHT22;5982;37.494;-8.758;2022-11-11T10:15:23;19.40;99.90
11846;DHT22;5982;37.494;-8.758;2022-11-11T10:18:17;19.50;99.90
11846;DHT22;5982;37.494;-8.758;2022-11-11T10:20:54;19.60;99.90
11846;DHT22;5982;37.494;-8.758;2022-11-11T10:23:28;19.60;99.90
11846;DHT22;5982;37.494;-8.758;2022-11-11T10:26:02;19.60;99.90
11846;DHT22;5982;37.494;-8.758;2022-11-11T10:28:35;19.70;99.90
11846;DHT22;5982;37.494;-8.758;2022-11-11T10:31:08;20.00;99.90
11846;DHT22;5982;37.494;-8.758;2022-11-11T10:33:45;20.20;99.90
11846;DHT22;5982;37.494;-8.758;2022-11-11T10:36:17;20.30;99.90
11846;DHT22;5982;37.494;-8.758;2022-11-11T10:38:52;20.60;99.90
11846;DHT22;5982;37.494;-8.758;2022-11-11T10:41:26;20.70;99.90
11846;DHT22;5982;37.494;-8.758;2022-11-11T10:43:58;20.80;99.90
11846;DHT22;5982;37.494;-8.758;2022-11-11T10:46:31;20.80;99.90
11846;DHT22;5982;37.494;-8.758;2022-11-11T10:49:07;20.70;99.90
11846;DHT22;5982;37.494;-8.758;2022-11-11T10:51:42;20.60;99.90
11846;DHT22;5982;37.494;-8.758;2022-11-11T10:54:18;20.60;99.90
11846;DHT22;5982;37.494;-8.758;2022-11-11T10:56:52;20.70;99.90
11846;DHT22;5982;37.494;-8.758;2022-11-11T10:59:26;20.80;99.90
11846;DHT22;5982;37.494;-8.758;2022-11-11T11:02:05;21.00;99.90
11846;DHT22;5982;37.494;-8.758;2022-11-11T11:04:43;21.20;99.90
11846;DHT22;5982;37.494;-8.758;2022-11-11T11:07:16;21.30;99.90
11846;DHT22;5982;37.494;-8.758;2022-11-11T11:09:53;21.40;99.90
11846;DHT22;5982;37.494;-8.758;2022-11-11T11:12:27;21.40;99.90
11846;DHT22;5982;37.494;-8.758;2022-11-11T11:15:01;21.50;99.90
11846;DHT22;5982;37.494;-8.758;2022-11-11T11:17:36;21.60;99.90
11846;DHT22;5982;37.494;-8.758;2022-11-11T11:20:11;21.60;99.90
11846;DHT22;5982;37.494;-8.758;2022-11-11T11:22:47;21.80;99.90
11846;DHT22;5982;37.494;-8.758;2022-11-11T11:25:19;21.80;99.90
11846;DHT22;5982;37.494;-8.758;2022-11-11T11:27:50;21.90;99.90
11846;DHT22;5982;37.494;-8.758;2022-11-11T11:30:22;22.00;99.90
11846;DHT22;5982;37.494;-8.758;2022-11-11T11:32:58;21.80;99.90
11846;DHT22;5982;37.494;-8.758;2022-11-11T11:35:36;21.90;99.90
11846;DHT22;5982;37.494;-8.758;2022-11-11T11:38:06;22.10;99.90
11846;DHT22;5982;37.494;-8.758;2022-11-11T11:40:49;22.20;99.90
11846;DHT22;5982;37.494;-8.758;2022-11-11T11:43:29;22.10;99.90
11846;DHT22;5982;37.494;-8.758;2022-11-11T11:46:01;22.10;99.90
11846;DHT22;5982;37.494;-8.758;2022-11-11T11:48:52;22.20;99.90
11846;DHT22;5982;37.494;-8.758;2022-11-11T11:51:32;22.30;99.90
11846;DHT22;5982;37.494;-8.758;2022-11-11T11:54:16;22.30;99.90
11846;DHT22;5982;37.494;-8.758;2022-11-11T11:57:19;22.30;99.90
11846;DHT22;5982;37.494;-8.758;2022-11-11T12:00:03;22.30;99.90
11846;DHT22;5982;37.494;-8.758;2022-11-11T12:02:58;22.40;99.90
11846;DHT22;5982;37.494;-8.758;2022-11-11T12:05:48;22.40;99.90
11846;DHT22;5982;37.494;-8.758;2022-11-11T12:08:30;22.50;99.90
11846;DHT22;5982;37.494;-8.758;2022-11-11T12:11:15;22.50;99.90
11846;DHT22;5982;37.494;-8.758;2022-11-11T12:13:57;22.60;99.90
11846;DHT22;5982;37.494;-8.758;2022-11-11T12:16:41;22.70;99.90
11846;DHT22;5982;37.494;-8.758;2022-11-11T12:19:28;22.90;99.90
11846;DHT22;5982;37.494;-8.758;2022-11-11T12:22:11;22.90;99.90
11846;DHT22;5982;37.494;-8.758;2022-11-11T12:24:58;22.80;99.90
11846;DHT22;5982;37.494;-8.758;2022-11-11T12:27:34;23.00;99.90
11846;DHT22;5982;37.494;-8.758;2022-11-11T12:30:10;23.20;99.90
11846;DHT22;5982;37.494;-8.758;2022-11-11T12:32:56;23.40;99.90
11846;DHT22;5982;37.494;-8.758;2022-11-11T12:35:51;23.50;99.90
11846;DHT22;5982;37.494;-8.758;2022-11-11T12:38:49;23.50;99.90
11846;DHT22;5982;37.494;-8.758;2022-11-11T12:41:34;23.40;99.90
11846;DHT22;5982;37.494;-8.758;2022-11-11T12:44:11;23.30;99.90
11846;DHT22;5982;37.494;-8.758;2022-11-11T12:46:52;23.40;99.90
11846;DHT22;5982;37.494;-8.758;2022-11-11T12:49:41;23.60;99.90
11846;DHT22;5982;37.494;-8.758;2022-11-11T12:52:29;23.60;99.90
11846;DHT22;5982;37.494;-8.758;2022-11-11T12:55:12;23.60;99.90
11846;DHT22;5982;37.494;-8.758;2022-11-11T12:57:55;23.40;99.90
11846;DHT22;5982;37.494;-8.758;2022-11-11T13:00:31;23.20;99.90
11846;DHT22;5982;37.494;-8.758;2022-11-11T13:03:25;23.30;99.90
11846;DHT22;5982;37.494;-8.758;2022-11-11T13:06:07;23.40;99.90
11846;DHT22;5982;37.494;-8.758;2022-11-11T13:09:00;23.40;99.90
11846;DHT22;5982;37.494;-8.758;2022-11-11T13:11:55;23.50;99.90
11846;DHT22;5982;37.494;-8.758;2022-11-11T13:14:44;23.40;99.90
11846;DHT22;5982;37.494;-8.758;2022-11-11T13:17:16;23.50;99.90
11846;DHT22;5982;37.494;-8.758;2022-11-11T13:19:50;23.50;99.90
11846;DHT22;5982;37.494;-8.758;2022-11-11T13:22:22;23.60;99.90
11846;DHT22;5982;37.494;-8.758;2022-11-11T13:24:54;23.60;99.90
11846;DHT22;5982;37.494;-8.758;2022-11-11T13:27:37;23.70;99.90
11846;DHT22;5982;37.494;-8.758;2022-11-11T13:33:35;23.90;99.90
11846;DHT22;5982;37.494;-8.758;2022-11-11T13:36:08;24.00;99.90
11846;DHT22;5982;37.494;-8.758;2022-11-11T13:38:44;24.10;99.90
11846;DHT22;5982;37.494;-8.758;2022-11-11T13:41:21;24.30;99.90
11846;DHT22;5982;37.494;-8.758;2022-11-11T13:43:53;24.30;99.90
11846;DHT22;5982;37.494;-8.758;2022-11-11T13:46:32;24.40;99.90
11846;DHT22;5982;37.494;-8.758;2022-11-11T13:49:02;24.60;99.90
11846;DHT22;5982;37.494;-8.758;2022-11-11T13:51:37;24.40;99.90
11846;DHT22;5982;37.494;-8.758;2022-11-11T13:54:20;24.30;99.90
11846;DHT22;5982;37.494;-8.758;2022-11-11T13:56:51;24.40;99.90
11846;DHT22;5982;37.494;-8.758;2022-11-11T13:59:26;24.40;99.90
11846;DHT22;5982;37.494;-8.758;2022-11-11T14:02:23;24.40;99.90
11846;DHT22;5982;37.494;-8.758;2022-11-11T14:05:21;24.50;99.90
11846;DHT22;5982;37.494;-8.758;2022-11-11T14:07:54;24.70;99.90
11846;DHT22;5982;37.494;-8.758;2022-11-11T14:10:49;24.70;99.90
11846;DHT22;5982;37.494;-8.758;2022-11-11T14:13:40;24.50;99.90
11846;DHT22;5982;37.494;-8.758;2022-11-11T14:16:10;24.10;99.90
11846;DHT22;5982;37.494;-8.758;2022-11-11T14:18:42;23.80;99.90
11846;DHT22;5982;37.494;-8.758;2022-11-11T14:21:46;23.60;99.90
11846;DHT22;5982;37.494;-8.758;2022-11-11T14:24:27;23.40;99.90
11846;DHT22;5982;37.494;-8.758;2022-11-11T14:27:01;23.20;99.90
11846;DHT22;5982;37.494;-8.758;2022-11-11T14:29:32;23.10;99.90
11846;DHT22;5982;37.494;-8.758;2022-11-11T14:32:19;23.10;99.90
11846;DHT22;5982;37.494;-8.758;2022-11-11T14:35:06;23.10;99.90
11846;DHT22;5982;37.494;-8.758;2022-11-11T14:38:03;23.10;99.90
11846;DHT22;5982;37.494;-8.758;2022-11-11T14:40:49;23.10;99.90
11846;DHT22;5982;37.494;-8.758;2022-11-11T14:43:35;23.20;99.90
11846;DHT22;5982;37.494;-8.758;2022-11-11T14:46:06;23.20;99.90
11846;DHT22;5982;37.494;-8.758;2022-11-11T14:51:44;23.20;99.90
11846;DHT22;5982;37.494;-8.758;2022-11-11T14:54:20;23.20;99.90
11846;DHT22;5982;37.494;-8.758;2022-11-11T14:56:58;23.20;99.90
11846;DHT22;5982;37.494;-8.758;2022-11-11T14:59:29;23.30;99.90
11846;DHT22;5982;37.494;-8.758;2022-11-11T15:01:58;23.30;99.90
11846;DHT22;5982;37.494;-8.758;2022-11-11T15:04:26;23.10;99.90
11846;DHT22;5982;37.494;-8.758;2022-11-11T15:07:03;23.10;99.90
11846;DHT22;5982;37.494;-8.758;2022-11-11T15:12:37;23.00;99.90
11846;DHT22;5982;37.494;-8.758;2022-11-11T15:15:16;22.90;99.90
11846;DHT22;5982;37.494;-8.758;2022-11-11T15:17:50;22.80;99.90
11846;DHT22;5982;37.494;-8.758;2022-11-11T15:23:30;22.80;99.90
11846;DHT22;5982;37.494;-8.758;2022-11-11T15:26:04;22.80;99.90
11846;DHT22;5982;37.494;-8.758;2022-11-11T15:28:42;22.70;99.90
11846;DHT22;5982;37.494;-8.758;2022-11-11T15:31:21;22.60;99.90
11846;DHT22;5982;37.494;-8.758;2022-11-11T15:33:53;22.50;99.90
11846;DHT22;5982;37.494;-8.758;2022-11-11T15:36:27;22.40;99.90
11846;DHT22;5982;37.494;-8.758;2022-11-11T15:39:02;22.40;99.90
11846;DHT22;5982;37.494;-8.758;2022-11-11T15:41:32;22.30;99.90
11846;DHT22;5982;37.494;-8.758;2022-11-11T15:44:06;22.30;99.90
11846;DHT22;5982;37.494;-8.758;2022-11-11T15:46:38;22.20;99.90
11846;DHT22;5982;37.494;-8.758;2022-11-11T15:49:11;22.20;99.90
11846;DHT22;5982;37.494;-8.758;2022-11-11T15:51:39;22.30;99.90
11846;DHT22;5982;37.494;-8.758;2022-11-11T15:54:08;22.30;99.90
11846;DHT22;5982;37.494;-8.758;2022-11-11T15:56:37;22.40;99.90
11846;DHT22;5982;37.494;-8.758;2022-11-11T15:59:16;22.40;99.90
11846;DHT22;5982;37.494;-8.758;2022-11-11T16:01:45;22.40;99.90
11846;DHT22;5982;37.494;-8.758;2022-11-11T16:04:14;22.40;99.90
11846;DHT22;5982;37.494;-8.758;2022-11-11T16:06:43;22.30;99.90
11846;DHT22;5982;37.494;-8.758;2022-11-11T16:09:12;22.30;99.90
11846;DHT22;5982;37.494;-8.758;2022-11-11T16:11:40;22.20;99.90
11846;DHT22;5982;37.494;-8.758;2022-11-11T16:14:12;22.10;99.90
11846;DHT22;5982;37.494;-8.758;2022-11-11T16:16:49;22.10;99.90
11846;DHT22;5982;37.494;-8.758;2022-11-11T16:19:20;22.00;99.90
11846;DHT22;5982;37.494;-8.758;2022-11-11T16:21:55;22.00;99.90
11846;DHT22;5982;37.494;-8.758;2022-11-11T16:24:26;22.00;99.90
11846;DHT22;5982;37.494;-8.758;2022-11-11T16:26:55;21.90;99.90
11846;DHT22;5982;37.494;-8.758;2022-11-11T16:29:26;21.80;99.90
11846;DHT22;5982;37.494;-8.758;2022-11-11T16:31:56;21.70;99.90
11846;DHT22;5982;37.494;-8.758;2022-11-11T16:34:31;21.50;99.90
11846;DHT22;5982;37.494;-8.758;2022-11-11T16:37:03;21.40;99.90
11846;DHT22;5982;37.494;-8.758;2022-11-11T16:39:32;21.30;99.90
11846;DHT22;5982;37.494;-8.758;2022-11-11T16:42:00;21.20;99.90
11846;DHT22;5982;37.494;-8.758;2022-11-11T16:44:33;21.00;99.90
11846;DHT22;5982;37.494;-8.758;2022-11-11T16:47:05;20.90;99.90
11846;DHT22;5982;37.494;-8.758;2022-11-11T16:49:36;20.70;99.90